sensor_id;sensor_type;location;lat;lon;timestamp;pressure;altitude;pressure_sealevel;temperature;humidity
8697;BME280;4385;48.848;8.924;2023-07-16T00:01:51;97214.38;;;25.98;100.00
8697;BME280;4385;48.848;8.924;2023-07-16T00:04:17;97234.13;;;25.99;100.00
8697;BME280;4385;48.848;8.924;2023-07-16T00:06:42;97242.69;;;26.00;100.00
8697;BME280;4385;48.848;8.924;2023-07-16T00:09:07;97259.94;;;25.99;100.00
8697;BME280;4385;48.848;8.924;2023-07-16T00:11:33;97260.03;;;25.98;100.00
8697;BME280;4385;48.848;8.924;2023-07-16T00:13:58;97266.94;;;25.97;100.00
8697;BME280;4385;48.848;8.924;2023-07-16T00:16:24;97260.94;;;25.97;100.00
8697;BME280;4385;48.848;8.924;2023-07-16T00:18:49;97261.03;;;25.95;100.00
8697;BME280;4385;48.848;8.924;2023-07-16T00:21:14;97248.13;;;25.95;100.00
8697;BME280;4385;48.848;8.924;2023-07-16T00:23:40;97236.13;;;25.94;100.00
8697;BME280;4385;48.848;8.924;2023-07-16T00:26:05;97229.31;;;25.93;100.00
8697;BME280;4385;48.848;8.924;2023-07-16T00:28:30;97253.28;;;25.95;100.00
8697;BME280;4385;48.848;8.924;2023-07-16T00:30:55;97255.03;;;25.95;100.00
8697;BME280;4385;48.848;8.924;2023-07-16T00:33:21;97253.38;;;25.94;100.00
8697;BME280;4385;48.848;8.924;2023-07-16T00:35:49;97263.59;;;25.95;100.00
8697;BME280;4385;48.848;8.924;2023-07-16T00:38:17;97253.28;;;25.95;100.00
8697;BME280;4385;48.848;8.924;2023-07-16T00:40:42;97262.78;;;25.95;100.00
8697;BME280;4385;48.848;8.924;2023-07-16T00:43:08;97254.22;;;25.94;100.00
8697;BME280;4385;48.848;8.924;2023-07-16T00:45:33;97258.44;;;25.95;100.00
8697;BME280;4385;48.848;8.924;2023-07-16T00:47:58;97242.94;;;25.95;100.00
8697;BME280;4385;48.848;8.924;2023-07-16T00:50:24;97240.38;;;25.95;100.00
8697;BME280;4385;48.848;8.924;2023-07-16T00:52:49;97232.63;;;25.95;100.00
8697;BME280;4385;48.848;8.924;2023-07-16T00:55:15;97252.47;;;25.95;100.00
8697;BME280;4385;48.848;8.924;2023-07-16T00:57:41;97266.28;;;25.94;100.00
8697;BME280;4385;48.848;8.924;2023-07-16T01:00:06;97284.44;;;25.92;100.00
8697;BME280;4385;48.848;8.924;2023-07-16T01:02:32;97287.84;;;25.93;100.00
8697;BME280;4385;48.848;8.924;2023-07-16T01:04:58;97287.75;;;25.94;100.00
8697;BME280;4385;48.848;8.924;2023-07-16T01:07:25;97308.41;;;25.94;100.00
8697;BME280;4385;48.848;8.924;2023-07-16T01:09:53;97304.19;;;25.93;100.00
8697;BME280;4385;48.848;8.924;2023-07-16T01:12:21;97303.25;;;25.94;100.00
8697;BME280;4385;48.848;8.924;2023-07-16T01:14:47;97298.25;;;25.91;100.00
8697;BME280;4385;48.848;8.924;2023-07-16T01:17:12;97306.00;;;25.91;100.00
8697;BME280;4385;48.848;8.924;2023-07-16T01:19:37;97294.94;;;25.89;100.00
8697;BME280;4385;48.848;8.924;2023-07-16T01:22:30;97283.63;;;25.92;100.00
8697;BME280;4385;48.848;8.924;2023-07-16T01:25:10;97290.50;;;25.91;100.00
8697;BME280;4385;48.848;8.924;2023-07-16T01:30:38;97322.41;;;25.90;100.00
8697;BME280;4385;48.848;8.924;2023-07-16T01:33:04;97317.25;;;25.90;100.00
8697;BME280;4385;48.848;8.924;2023-07-16T01:35:30;97332.75;;;25.90;100.00
8697;BME280;4385;48.848;8.924;2023-07-16T01:37:55;97326.75;;;25.89;100.00
8697;BME280;4385;48.848;8.924;2023-07-16T01:40:20;97338.06;;;25.87;100.00
8697;BME280;4385;48.848;8.924;2023-07-16T01:42:46;97327.75;;;25.87;100.00
8697;BME280;4385;48.848;8.924;2023-07-16T01:45:11;97325.16;;;25.87;100.00
8697;BME280;4385;48.848;8.924;2023-07-16T01:50:20;97298.69;;;25.83;100.00
8697;BME280;4385;48.848;8.924;2023-07-16T01:52:46;97307.44;;;25.81;100.00
8697;BME280;4385;48.848;8.924;2023-07-16T01:55:11;97341.88;;;25.80;100.00
8697;BME280;4385;48.848;8.924;2023-07-16T01:57:36;97354.63;;;25.83;100.00
8697;BME280;4385;48.848;8.924;2023-07-16T02:00:02;97361.63;;;25.81;100.00
8697;BME280;4385;48.848;8.924;2023-07-16T02:02:28;97362.53;;;25.80;100.00
8697;BME280;4385;48.848;8.924;2023-07-16T02:04:53;97333.25;;;25.81;100.00
8697;BME280;4385;48.848;8.924;2023-07-16T02:07:18;97332.41;;;25.80;100.00
8697;BME280;4385;48.848;8.924;2023-07-16T02:09:44;97320.25;;;25.82;100.00
8697;BME280;4385;48.848;8.924;2023-07-16T02:12:09;97332.25;;;25.83;100.00
8697;BME280;4385;48.848;8.924;2023-07-16T02:14:34;97343.41;;;25.84;100.00
8697;BME280;4385;48.848;8.924;2023-07-16T02:16:59;97349.38;;;25.84;100.00
8697;BME280;4385;48.848;8.924;2023-07-16T02:19:25;97347.72;;;25.83;100.00
8697;BME280;4385;48.848;8.924;2023-07-16T02:21:51;97342.72;;;25.80;100.00
8697;BME280;4385;48.848;8.924;2023-07-16T02:24:16;97331.56;;;25.80;100.00
8697;BME280;4385;48.848;8.924;2023-07-16T02:26:41;97345.31;;;25.80;100.00
8697;BME280;4385;48.848;8.924;2023-07-16T02:29:07;97355.63;;;25.80;100.00
8697;BME280;4385;48.848;8.924;2023-07-16T02:31:34;97351.41;;;25.79;100.00
8697;BME280;4385;48.848;8.924;2023-07-16T02:33:59;97361.81;;;25.77;100.00
8697;BME280;4385;48.848;8.924;2023-07-16T02:36:24;97362.69;;;25.76;100.00
8697;BME280;4385;48.848;8.924;2023-07-16T02:38:50;97360.13;;;25.76;100.00
8697;BME280;4385;48.848;8.924;2023-07-16T02:41:15;97362.69;;;25.76;100.00
8697;BME280;4385;48.848;8.924;2023-07-16T02:43:40;97361.06;;;25.75;100.00
8697;BME280;4385;48.848;8.924;2023-07-16T02:46:06;97358.38;;;25.77;100.00
8697;BME280;4385;48.848;8.924;2023-07-16T02:48:31;97342.97;;;25.75;100.00
8697;BME280;4385;48.848;8.924;2023-07-16T02:50:56;97335.25;;;25.75;100.00
8697;BME280;4385;48.848;8.924;2023-07-16T02:53:21;97336.91;;;25.76;100.00
8697;BME280;4385;48.848;8.924;2023-07-16T02:55:47;97350.72;;;25.75;100.00
8697;BME280;4385;48.848;8.924;2023-07-16T02:58:12;97346.50;;;25.74;100.00
8697;BME280;4385;48.848;8.924;2023-07-16T03:00:37;97341.34;;;25.74;100.00
8697;BME280;4385;48.848;8.924;2023-07-16T03:03:04;97338.75;;;25.74;100.00
8697;BME280;4385;48.848;8.924;2023-07-16T03:05:29;97349.06;;;25.74;100.00
8697;BME280;4385;48.848;8.924;2023-07-16T03:07:54;97346.56;;;25.73;100.00
8697;BME280;4385;48.848;8.924;2023-07-16T03:10:23;97367.22;;;25.73;100.00
8697;BME280;4385;48.848;8.924;2023-07-16T03:12:51;97371.53;;;25.72;100.00
8697;BME280;4385;48.848;8.924;2023-07-16T03:15:16;97384.53;;;25.71;100.00
8697;BME280;4385;48.848;8.924;2023-07-16T03:17:42;97383.69;;;25.70;100.00
8697;BME280;4385;48.848;8.924;2023-07-16T03:20:07;97390.53;;;25.71;100.00
8697;BME280;4385;48.848;8.924;2023-07-16T03:22:33;97382.03;;;25.69;100.00
8697;BME280;4385;48.848;8.924;2023-07-16T03:24:58;97371.78;;;25.68;100.00
8697;BME280;4385;48.848;8.924;2023-07-16T03:27:23;97384.69;;;25.68;100.00
8697;BME280;4385;48.848;8.924;2023-07-16T03:29:49;97370.94;;;25.67;100.00
8697;BME280;4385;48.848;8.924;2023-07-16T03:32:14;97380.53;;;25.65;100.00
8697;BME280;4385;48.848;8.924;2023-07-16T03:34:39;97390.00;;;25.64;100.00
8697;BME280;4385;48.848;8.924;2023-07-16T03:37:05;97387.44;;;25.64;100.00
8697;BME280;4385;48.848;8.924;2023-07-16T03:39:30;97381.34;;;25.65;100.00
8697;BME280;4385;48.848;8.924;2023-07-16T03:41:55;97386.44;;;25.67;100.00
8697;BME280;4385;48.848;8.924;2023-07-16T03:44:20;97399.31;;;25.67;100.00
8697;BME280;4385;48.848;8.924;2023-07-16T03:46:46;97413.16;;;25.66;100.00
8697;BME280;4385;48.848;8.924;2023-07-16T03:49:11;97412.22;;;25.67;100.00
8697;BME280;4385;48.848;8.924;2023-07-16T03:51:37;97420.91;;;25.66;100.00
8697;BME280;4385;48.848;8.924;2023-07-16T03:54:02;97423.56;;;25.64;100.00
8697;BME280;4385;48.848;8.924;2023-07-16T03:56:27;97426.97;;;25.65;100.00
8697;BME280;4385;48.848;8.924;2023-07-16T03:58:53;97444.19;;;25.64;100.00
8697;BME280;4385;48.848;8.924;2023-07-16T04:01:18;97457.09;;;25.64;100.00
8697;BME280;4385;48.848;8.924;2023-07-16T04:03:44;97456.25;;;25.64;100.00
8697;BME280;4385;48.848;8.924;2023-07-16T04:06:09;97471.72;;;25.64;100.00
8697;BME280;4385;48.848;8.924;2023-07-16T04:08:36;97460.59;;;25.63;100.00
8697;BME280;4385;48.848;8.924;2023-07-16T04:11:02;97456.34;;;25.62;100.00
8697;BME280;4385;48.848;8.924;2023-07-16T04:13:28;97454.59;;;25.63;100.00
8697;BME280;4385;48.848;8.924;2023-07-16T04:15:53;97450.28;;;25.63;100.00
8697;BME280;4385;48.848;8.924;2023-07-16T04:18:21;97444.28;;;25.63;100.00
8697;BME280;4385;48.848;8.924;2023-07-16T04:20:46;97444.28;;;25.63;100.00
8697;BME280;4385;48.848;8.924;2023-07-16T04:23:11;97447.78;;;25.62;100.00
8697;BME280;4385;48.848;8.924;2023-07-16T04:25:37;97447.78;;;25.62;100.00
8697;BME280;4385;48.848;8.924;2023-07-16T04:28:02;97432.31;;;25.62;100.00
8697;BME280;4385;48.848;8.924;2023-07-16T04:30:29;97438.34;;;25.61;100.00
8697;BME280;4385;48.848;8.924;2023-07-16T04:32:54;97446.09;;;25.61;100.00
8697;BME280;4385;48.848;8.924;2023-07-16T04:35:19;97457.25;;;25.61;100.00
8697;BME280;4385;48.848;8.924;2023-07-16T04:37:44;97472.78;;;25.60;100.00
8697;BME280;4385;48.848;8.924;2023-07-16T04:40:10;97477.94;;;25.60;100.00
8697;BME280;4385;48.848;8.924;2023-07-16T04:42:35;97484.03;;;25.59;100.00
8697;BME280;4385;48.848;8.924;2023-07-16T04:45:01;97488.34;;;25.58;100.00
8697;BME280;4385;48.848;8.924;2023-07-16T04:47:26;97502.16;;;25.57;100.00
8697;BME280;4385;48.848;8.924;2023-07-16T04:49:51;97502.25;;;25.56;100.00
8697;BME280;4385;48.848;8.924;2023-07-16T04:52:17;97511.81;;;25.53;100.00
8697;BME280;4385;48.848;8.924;2023-07-16T04:54:42;97511.81;;;25.53;100.00
8697;BME280;4385;48.848;8.924;2023-07-16T04:57:07;97505.00;;;25.52;100.00
8697;BME280;4385;48.848;8.924;2023-07-16T04:59:33;97523.03;;;25.52;100.00
8697;BME280;4385;48.848;8.924;2023-07-16T05:01:59;97512.72;;;25.52;100.00
8697;BME280;4385;48.848;8.924;2023-07-16T05:04:24;97511.03;;;25.51;100.00
8697;BME280;4385;48.848;8.924;2023-07-16T05:06:49;97506.81;;;25.50;100.00
8697;BME280;4385;48.848;8.924;2023-07-16T05:09:15;97511.13;;;25.50;100.00
8697;BME280;4385;48.848;8.924;2023-07-16T05:11:40;97507.72;;;25.49;100.00
8697;BME280;4385;48.848;8.924;2023-07-16T05:14:05;97514.63;;;25.49;100.00
8697;BME280;4385;48.848;8.924;2023-07-16T05:16:31;97514.63;;;25.49;100.00
8697;BME280;4385;48.848;8.924;2023-07-16T05:18:56;97524.09;;;25.48;100.00
8697;BME280;4385;48.848;8.924;2023-07-16T05:21:21;97513.78;;;25.48;100.00
8697;BME280;4385;48.848;8.924;2023-07-16T05:23:46;97515.53;;;25.48;100.00
8697;BME280;4385;48.848;8.924;2023-07-16T05:26:12;97512.97;;;25.48;100.00
8697;BME280;4385;48.848;8.924;2023-07-16T05:28:37;97526.66;;;25.48;100.00
8697;BME280;4385;48.848;8.924;2023-07-16T05:31:03;97524.09;;;25.48;100.00
8697;BME280;4385;48.848;8.924;2023-07-16T05:33:28;97537.00;;;25.48;100.00
8697;BME280;4385;48.848;8.924;2023-07-16T05:35:54;97521.59;;;25.47;100.00
8697;BME280;4385;48.848;8.924;2023-07-16T05:38:19;97525.84;;;25.48;100.00
8697;BME280;4385;48.848;8.924;2023-07-16T05:40:44;97528.44;;;25.48;100.00
8697;BME280;4385;48.848;8.924;2023-07-16T05:43:10;97515.63;;;25.46;100.00
8697;BME280;4385;48.848;8.924;2023-07-16T05:45:36;97526.75;;;25.47;100.00
8697;BME280;4385;48.848;8.924;2023-07-16T05:48:01;97523.28;;;25.48;100.00
8697;BME280;4385;48.848;8.924;2023-07-16T05:50:27;97523.28;;;25.48;100.00
8697;BME280;4385;48.848;8.924;2023-07-16T05:52:52;97535.25;;;25.49;100.00
8697;BME280;4385;48.848;8.924;2023-07-16T05:55:17;97539.66;;;25.47;100.00
8697;BME280;4385;48.848;8.924;2023-07-16T05:57:42;97543.22;;;25.44;100.00
8697;BME280;4385;48.848;8.924;2023-07-16T06:00:08;97544.72;;;25.48;100.00
8697;BME280;4385;48.848;8.924;2023-07-16T06:02:34;97537.91;;;25.47;100.00
8697;BME280;4385;48.848;8.924;2023-07-16T06:04:59;97532.75;;;25.47;100.00
8697;BME280;4385;48.848;8.924;2023-07-16T06:07:24;97537.91;;;25.47;100.00
8697;BME280;4385;48.848;8.924;2023-07-16T06:09:50;97537.91;;;25.47;100.00
8697;BME280;4385;48.848;8.924;2023-07-16T06:12:15;97541.41;;;25.46;100.00
8697;BME280;4385;48.848;8.924;2023-07-16T06:14:40;97542.22;;;25.47;100.00
8697;BME280;4385;48.848;8.924;2023-07-16T06:17:06;97550.03;;;25.45;100.00
8697;BME280;4385;48.848;8.924;2023-07-16T06:19:31;97552.53;;;25.47;100.00
8697;BME280;4385;48.848;8.924;2023-07-16T06:21:56;97545.72;;;25.46;100.00
8697;BME280;4385;48.848;8.924;2023-07-16T06:24:22;97551.72;;;25.46;100.00
8697;BME280;4385;48.848;8.924;2023-07-16T06:26:47;97548.38;;;25.44;100.00
8697;BME280;4385;48.848;8.924;2023-07-16T06:29:13;97546.66;;;25.45;100.00
8697;BME280;4385;48.848;8.924;2023-07-16T06:31:38;97543.22;;;25.44;100.00
8697;BME280;4385;48.848;8.924;2023-07-16T06:34:04;97549.31;;;25.43;100.00
8697;BME280;4385;48.848;8.924;2023-07-16T06:36:29;97545.81;;;25.44;100.00
8697;BME280;4385;48.848;8.924;2023-07-16T06:38:54;97547.53;;;25.44;100.00
8697;BME280;4385;48.848;8.924;2023-07-16T06:41:19;97550.03;;;25.45;100.00
8697;BME280;4385;48.848;8.924;2023-07-16T06:43:45;97556.97;;;25.45;100.00
8697;BME280;4385;48.848;8.924;2023-07-16T06:46:10;97556.13;;;25.44;100.00
8697;BME280;4385;48.848;8.924;2023-07-16T06:48:35;97548.38;;;25.44;100.00
8697;BME280;4385;48.848;8.924;2023-07-16T06:51:00;97551.88;;;25.43;100.00
8697;BME280;4385;48.848;8.924;2023-07-16T06:53:26;97550.97;;;25.44;100.00
8697;BME280;4385;48.848;8.924;2023-07-16T06:55:51;97560.22;;;25.48;100.00
8697;BME280;4385;48.848;8.924;2023-07-16T06:58:17;97556.88;;;25.46;100.00
8697;BME280;4385;48.848;8.924;2023-07-16T07:00:42;97564.72;;;25.45;100.00
8697;BME280;4385;48.848;8.924;2023-07-16T07:03:08;97560.34;;;25.45;100.00
8697;BME280;4385;48.848;8.924;2023-07-16T07:05:33;97565.38;;;25.48;100.00
8697;BME280;4385;48.848;8.924;2023-07-16T07:08:01;97560.97;;;25.50;100.00
8697;BME280;4385;48.848;8.924;2023-07-16T07:10:26;97547.16;;;25.51;100.00
8697;BME280;4385;48.848;8.924;2023-07-16T07:12:51;97544.56;;;25.51;100.00
8697;BME280;4385;48.848;8.924;2023-07-16T07:15:17;97543.69;;;25.52;100.00
8697;BME280;4385;48.848;8.924;2023-07-16T07:17:42;97553.84;;;25.56;100.00
8697;BME280;4385;48.848;8.924;2023-07-16T07:20:08;97552.91;;;25.57;100.00
8697;BME280;4385;48.848;8.924;2023-07-16T07:22:33;97551.91;;;25.59;100.00
8697;BME280;4385;48.848;8.924;2023-07-16T07:24:59;97552.78;;;25.60;100.00
8697;BME280;4385;48.848;8.924;2023-07-16T07:27:24;97552.78;;;25.60;100.00
8697;BME280;4385;48.848;8.924;2023-07-16T07:29:49;97556.00;;;25.65;100.00
8697;BME280;4385;48.848;8.924;2023-07-16T07:32:19;97563.56;;;25.68;100.00
8697;BME280;4385;48.848;8.924;2023-07-16T07:34:44;97566.97;;;25.69;100.00
8697;BME280;4385;48.848;8.924;2023-07-16T07:37:10;97570.38;;;25.69;100.00
8697;BME280;4385;48.848;8.924;2023-07-16T07:39:35;97566.97;;;25.69;100.00
8697;BME280;4385;48.848;8.924;2023-07-16T07:42:00;97564.47;;;25.67;100.00
8697;BME280;4385;48.848;8.924;2023-07-16T07:44:25;97561.00;;;25.68;100.00
8697;BME280;4385;48.848;8.924;2023-07-16T07:46:51;97570.47;;;25.68;100.00
8697;BME280;4385;48.848;8.924;2023-07-16T07:49:16;97576.47;;;25.68;100.00
8697;BME280;4385;48.848;8.924;2023-07-16T07:51:41;97578.13;;;25.69;100.00
8697;BME280;4385;48.848;8.924;2023-07-16T07:54:06;97576.47;;;25.68;100.00
8697;BME280;4385;48.848;8.924;2023-07-16T07:56:32;97580.72;;;25.69;100.00
8697;BME280;4385;48.848;8.924;2023-07-16T07:58:57;97575.56;;;25.69;100.00
8697;BME280;4385;48.848;8.924;2023-07-16T08:01:22;97576.31;;;25.71;100.00
8697;BME280;4385;48.848;8.924;2023-07-16T08:03:48;97584.78;;;25.73;100.00
8697;BME280;4385;48.848;8.924;2023-07-16T08:06:13;97571.00;;;25.74;100.00
8697;BME280;4385;48.848;8.924;2023-07-16T08:08:38;97576.25;;;25.73;100.00
8697;BME280;4385;48.848;8.924;2023-07-16T08:11:04;97568.41;;;25.74;100.00
8697;BME280;4385;48.848;8.924;2023-07-16T08:13:29;97564.16;;;25.73;100.00
8697;BME280;4385;48.848;8.924;2023-07-16T08:15:54;97570.09;;;25.75;100.00
8697;BME280;4385;48.848;8.924;2023-07-16T08:18:19;97566.56;;;25.76;100.00
8697;BME280;4385;48.848;8.924;2023-07-16T08:20:46;97576.81;;;25.78;100.00
8697;BME280;4385;48.848;8.924;2023-07-16T08:23:12;97576.00;;;25.77;100.00
8697;BME280;4385;48.848;8.924;2023-07-16T08:25:37;97561.50;;;25.75;100.00
8697;BME280;4385;48.848;8.924;2023-07-16T08:28:02;97552.94;;;25.74;100.00
8697;BME280;4385;48.848;8.924;2023-07-16T08:30:28;97547.00;;;25.72;100.00
8697;BME280;4385;48.848;8.924;2023-07-16T08:32:53;97557.41;;;25.71;100.00
8697;BME280;4385;48.848;8.924;2023-07-16T08:35:18;97566.16;;;25.68;100.00
8697;BME280;4385;48.848;8.924;2023-07-16T08:37:45;97566.31;;;25.65;100.00
8697;BME280;4385;48.848;8.924;2023-07-16T08:40:11;97559.47;;;25.64;100.00
8697;BME280;4385;48.848;8.924;2023-07-16T08:42:38;97559.31;;;25.67;100.00
8697;BME280;4385;48.848;8.924;2023-07-16T08:45:06;97565.38;;;25.66;100.00
8697;BME280;4385;48.848;8.924;2023-07-16T08:47:32;97569.78;;;25.64;100.00
8697;BME280;4385;48.848;8.924;2023-07-16T08:49:57;97570.72;;;25.63;100.00
8697;BME280;4385;48.848;8.924;2023-07-16T08:52:24;97581.94;;;25.62;100.00
8697;BME280;4385;48.848;8.924;2023-07-16T08:54:51;97590.56;;;25.61;100.00
8697;BME280;4385;48.848;8.924;2023-07-16T08:57:17;97587.22;;;25.59;100.00
8697;BME280;4385;48.848;8.924;2023-07-16T08:59:44;97589.81;;;25.59;100.00
8697;BME280;4385;48.848;8.924;2023-07-16T09:02:12;97574.41;;;25.57;100.00
8697;BME280;4385;48.848;8.924;2023-07-16T09:04:37;97583.88;;;25.57;100.00
8697;BME280;4385;48.848;8.924;2023-07-16T09:07:04;97587.22;;;25.59;100.00
8697;BME280;4385;48.848;8.924;2023-07-16T09:09:29;97585.47;;;25.59;100.00
8697;BME280;4385;48.848;8.924;2023-07-16T09:11:55;97593.16;;;25.61;100.00
8697;BME280;4385;48.848;8.924;2023-07-16T09:14:21;97582.88;;;25.59;100.00
8697;BME280;4385;48.848;8.924;2023-07-16T09:16:53;97575.16;;;25.59;100.00
8697;BME280;4385;48.848;8.924;2023-07-16T09:19:18;97578.56;;;25.60;100.00
8697;BME280;4385;48.848;8.924;2023-07-16T09:21:50;97583.72;;;25.60;100.00
8697;BME280;4385;48.848;8.924;2023-07-16T09:24:17;97582.06;;;25.59;100.00
8697;BME280;4385;48.848;8.924;2023-07-16T09:26:50;97587.22;;;25.59;100.00
8697;BME280;4385;48.848;8.924;2023-07-16T09:29:16;97590.69;;;25.58;100.00
8697;BME280;4385;48.848;8.924;2023-07-16T09:31:59;97578.56;;;25.60;100.00
8697;BME280;4385;48.848;8.924;2023-07-16T09:34:27;97587.22;;;25.59;100.00
8697;BME280;4385;48.848;8.924;2023-07-16T09:36:52;97575.16;;;25.59;100.00
8697;BME280;4385;48.848;8.924;2023-07-16T09:39:18;97566.59;;;25.59;100.00
8697;BME280;4385;48.848;8.924;2023-07-16T09:41:48;97570.81;;;25.60;100.00
8697;BME280;4385;48.848;8.924;2023-07-16T09:44:14;97576.91;;;25.59;100.00
8697;BME280;4385;48.848;8.924;2023-07-16T09:46:39;97580.38;;;25.58;100.00
8697;BME280;4385;48.848;8.924;2023-07-16T09:49:06;97573.50;;;25.58;100.00
8697;BME280;4385;48.848;8.924;2023-07-16T09:51:31;97570.06;;;25.58;100.00
8697;BME280;4385;48.848;8.924;2023-07-16T09:54:01;97574.41;;;25.57;100.00
8697;BME280;4385;48.848;8.924;2023-07-16T09:56:32;97580.38;;;25.58;100.00
8697;BME280;4385;48.848;8.924;2023-07-16T09:58:59;97579.56;;;25.57;100.00
8697;BME280;4385;48.848;8.924;2023-07-16T10:01:26;97578.72;;;25.57;100.00
8697;BME280;4385;48.848;8.924;2023-07-16T10:03:51;97572.56;;;25.59;100.00
8697;BME280;4385;48.848;8.924;2023-07-16T10:06:17;97585.47;;;25.59;100.00
8697;BME280;4385;48.848;8.924;2023-07-16T10:08:48;97574.25;;;25.60;100.00
8697;BME280;4385;48.848;8.924;2023-07-16T10:11:18;97577.72;;;25.59;100.00
8697;BME280;4385;48.848;8.924;2023-07-16T10:13:48;97583.72;;;25.60;100.00
8697;BME280;4385;48.848;8.924;2023-07-16T10:16:21;97586.31;;;25.60;100.00
8697;BME280;4385;48.848;8.924;2023-07-16T10:18:52;97581.16;;;25.60;100.00
8697;BME280;4385;48.848;8.924;2023-07-16T10:21:23;97582.88;;;25.59;100.00
8697;BME280;4385;48.848;8.924;2023-07-16T10:23:59;97572.56;;;25.59;100.00
8697;BME280;4385;48.848;8.924;2023-07-16T10:26:28;97571.75;;;25.59;100.00
8697;BME280;4385;48.848;8.924;2023-07-16T10:28:54;97573.41;;;25.60;100.00
8697;BME280;4385;48.848;8.924;2023-07-16T10:31:25;97567.41;;;25.59;100.00
8697;BME280;4385;48.848;8.924;2023-07-16T10:34:00;97564.81;;;25.59;100.00
8697;BME280;4385;48.848;8.924;2023-07-16T10:36:26;97555.34;;;25.60;100.00
8697;BME280;4385;48.848;8.924;2023-07-16T10:38:51;97555.31;;;25.61;100.00
8697;BME280;4385;48.848;8.924;2023-07-16T10:41:17;97573.38;;;25.61;100.00
8697;BME280;4385;48.848;8.924;2023-07-16T10:43:42;97564.78;;;25.61;100.00
8697;BME280;4385;48.848;8.924;2023-07-16T10:46:09;97563.88;;;25.62;100.00
8697;BME280;4385;48.848;8.924;2023-07-16T10:48:34;97560.38;;;25.63;100.00
8697;BME280;4385;48.848;8.924;2023-07-16T10:50:59;97554.47;;;25.61;100.00
8697;BME280;4385;48.848;8.924;2023-07-16T10:53:25;97544.97;;;25.61;100.00
8697;BME280;4385;48.848;8.924;2023-07-16T10:55:50;97552.66;;;25.63;100.00
8697;BME280;4385;48.848;8.924;2023-07-16T10:58:16;97560.31;;;25.64;100.00
8697;BME280;4385;48.848;8.924;2023-07-16T11:00:41;97558.66;;;25.63;100.00
8697;BME280;4385;48.848;8.924;2023-07-16T11:03:07;97549.13;;;25.64;100.00
8697;BME280;4385;48.848;8.924;2023-07-16T11:05:33;97555.22;;;25.63;100.00
8697;BME280;4385;48.848;8.924;2023-07-16T11:07:59;97554.31;;;25.64;100.00
8697;BME280;4385;48.848;8.924;2023-07-16T11:10:24;97553.56;;;25.62;100.00
8697;BME280;4385;48.848;8.924;2023-07-16T11:12:55;97544.97;;;25.61;100.00
8697;BME280;4385;48.848;8.924;2023-07-16T11:15:34;97535.50;;;25.62;100.00
8697;BME280;4385;48.848;8.924;2023-07-16T11:18:00;97541.59;;;25.59;100.00
8697;BME280;4385;48.848;8.924;2023-07-16T11:20:26;97532.13;;;25.60;100.00
8697;BME280;4385;48.848;8.924;2023-07-16T11:22:51;97540.72;;;25.60;100.00
8697;BME280;4385;48.848;8.924;2023-07-16T11:25:17;97541.59;;;25.59;100.00
8697;BME280;4385;48.848;8.924;2023-07-16T11:27:43;97539.88;;;25.60;100.00
8697;BME280;4385;48.848;8.924;2023-07-16T11:30:09;97537.28;;;25.60;100.00
8697;BME280;4385;48.848;8.924;2023-07-16T11:32:36;97545.94;;;25.59;100.00
8697;BME280;4385;48.848;8.924;2023-07-16T11:35:04;97545.03;;;25.60;100.00
8697;BME280;4385;48.848;8.924;2023-07-16T11:37:31;97552.78;;;25.60;100.00
8697;BME280;4385;48.848;8.924;2023-07-16T11:42:34;97543.38;;;25.59;100.00
8697;BME280;4385;48.848;8.924;2023-07-16T11:45:00;97538.97;;;25.61;100.00
8697;BME280;4385;48.848;8.924;2023-07-16T11:47:26;97536.31;;;25.62;100.00
8697;BME280;4385;48.848;8.924;2023-07-16T11:49:52;97536.31;;;25.62;100.00
8697;BME280;4385;48.848;8.924;2023-07-16T11:52:23;97524.34;;;25.61;100.00
8697;BME280;4385;48.848;8.924;2023-07-16T11:54:49;97527.53;;;25.67;100.00
8697;BME280;4385;48.848;8.924;2023-07-16T11:57:15;97531.84;;;25.66;100.00
8697;BME280;4385;48.848;8.924;2023-07-16T11:59:41;97528.34;;;25.67;100.00
8697;BME280;4385;48.848;8.924;2023-07-16T12:02:07;97521.53;;;25.66;100.00
8697;BME280;4385;48.848;8.924;2023-07-16T12:04:32;97518.03;;;25.67;100.00
8697;BME280;4385;48.848;8.924;2023-07-16T12:06:57;97526.59;;;25.68;100.00
8697;BME280;4385;48.848;8.924;2023-07-16T12:09:22;97524.88;;;25.68;100.00
8697;BME280;4385;48.848;8.924;2023-07-16T12:11:48;97517.84;;;25.70;100.00
8697;BME280;4385;48.848;8.924;2023-07-16T12:14:13;97511.97;;;25.68;100.00
8697;BME280;4385;48.848;8.924;2023-07-16T12:16:38;97505.13;;;25.67;100.00
8697;BME280;4385;48.848;8.924;2023-07-16T12:19:07;97501.56;;;25.70;100.00
8697;BME280;4385;48.848;8.924;2023-07-16T12:21:33;97495.41;;;25.72;100.00
8697;BME280;4385;48.848;8.924;2023-07-16T12:23:58;97494.47;;;25.73;100.00
8697;BME280;4385;48.848;8.924;2023-07-16T12:26:23;97499.72;;;25.72;100.00
8697;BME280;4385;48.848;8.924;2023-07-16T12:28:48;97495.41;;;25.72;100.00
8697;BME280;4385;48.848;8.924;2023-07-16T12:31:14;97491.97;;;25.72;100.00
8697;BME280;4385;48.848;8.924;2023-07-16T12:33:41;97499.72;;;25.72;100.00
8697;BME280;4385;48.848;8.924;2023-07-16T12:36:06;97490.25;;;25.72;100.00
8697;BME280;4385;48.848;8.924;2023-07-16T12:38:31;97487.66;;;25.72;100.00
8697;BME280;4385;48.848;8.924;2023-07-16T12:40:57;97483.41;;;25.71;100.00
8697;BME280;4385;48.848;8.924;2023-07-16T12:43:22;97485.91;;;25.73;100.00
8697;BME280;4385;48.848;8.924;2023-07-16T12:45:47;97489.31;;;25.73;100.00
8697;BME280;4385;48.848;8.924;2023-07-16T12:48:13;97493.59;;;25.74;100.00
8697;BME280;4385;48.848;8.924;2023-07-16T12:50:38;97490.06;;;25.75;100.00
8697;BME280;4385;48.848;8.924;2023-07-16T12:53:03;97491.72;;;25.76;100.00
8697;BME280;4385;48.848;8.924;2023-07-16T12:55:29;97488.25;;;25.77;100.00
8697;BME280;4385;48.848;8.924;2023-07-16T12:57:56;97493.41;;;25.77;100.00
8697;BME280;4385;48.848;8.924;2023-07-16T13:00:21;97486.50;;;25.78;100.00
8697;BME280;4385;48.848;8.924;2023-07-16T13:02:46;97493.25;;;25.81;100.00
8697;BME280;4385;48.848;8.924;2023-07-16T13:05:12;97487.25;;;25.80;100.00
8697;BME280;4385;48.848;8.924;2023-07-16T13:07:37;97480.34;;;25.81;100.00
8697;BME280;4385;48.848;8.924;2023-07-16T13:10:02;97485.53;;;25.81;100.00
8697;BME280;4385;48.848;8.924;2023-07-16T13:12:28;97486.41;;;25.80;100.00